sensor_id;sensor_type;location;lat;lon;timestamp;temperature;humidity
10722;DHT22;5412;59.450;18.124;2023-02-18T00:01:23;6.70;99.90
10722;DHT22;5412;59.450;18.124;2023-02-18T00:03:49;6.80;99.90
10722;DHT22;5412;59.450;18.124;2023-02-18T00:06:21;6.60;99.90
10722;DHT22;5412;59.450;18.124;2023-02-18T00:08:47;6.50;99.90
10722;DHT22;5412;59.450;18.124;2023-02-18T00:11:14;6.50;99.90
10722;DHT22;5412;59.450;18.124;2023-02-18T00:13:40;6.40;99.90
10722;DHT22;5412;59.450;18.124;2023-02-18T00:16:11;6.30;99.90
10722;DHT22;5412;59.450;18.124;2023-02-18T00:18:38;6.30;99.90
10722;DHT22;5412;59.450;18.124;2023-02-18T00:21:05;6.30;99.90
10722;DHT22;5412;59.450;18.124;2023-02-18T00:23:32;6.20;99.90
10722;DHT22;5412;59.450;18.124;2023-02-18T00:26:11;6.10;99.90
10722;DHT22;5412;59.450;18.124;2023-02-18T00:28:37;6.10;99.90
10722;DHT22;5412;59.450;18.124;2023-02-18T00:31:08;6.00;99.90
10722;DHT22;5412;59.450;18.124;2023-02-18T00:33:34;5.90;99.90
10722;DHT22;5412;59.450;18.124;2023-02-18T00:36:05;5.90;99.90
10722;DHT22;5412;59.450;18.124;2023-02-18T00:38:31;5.60;99.90
10722;DHT22;5412;59.450;18.124;2023-02-18T00:40:57;5.70;99.90
10722;DHT22;5412;59.450;18.124;2023-02-18T00:43:23;5.70;99.90
10722;DHT22;5412;59.450;18.124;2023-02-18T00:45:49;5.70;99.90
10722;DHT22;5412;59.450;18.124;2023-02-18T00:48:15;5.60;99.90
10722;DHT22;5412;59.450;18.124;2023-02-18T00:50:41;5.60;99.90
10722;DHT22;5412;59.450;18.124;2023-02-18T00:53:06;5.50;99.90
10722;DHT22;5412;59.450;18.124;2023-02-18T00:55:37;5.50;99.90
10722;DHT22;5412;59.450;18.124;2023-02-18T00:58:02;5.50;99.90
10722;DHT22;5412;59.450;18.124;2023-02-18T01:00:28;5.50;99.90
10722;DHT22;5412;59.450;18.124;2023-02-18T01:02:54;5.40;99.90
10722;DHT22;5412;59.450;18.124;2023-02-18T01:05:20;5.20;99.90
10722;DHT22;5412;59.450;18.124;2023-02-18T01:07:46;5.20;99.90
10722;DHT22;5412;59.450;18.124;2023-02-18T01:10:12;5.10;99.90
10722;DHT22;5412;59.450;18.124;2023-02-18T01:12:38;5.00;99.90
10722;DHT22;5412;59.450;18.124;2023-02-18T01:15:05;5.00;99.90
10722;DHT22;5412;59.450;18.124;2023-02-18T01:17:31;5.00;99.90
10722;DHT22;5412;59.450;18.124;2023-02-18T01:19:57;5.00;99.90
10722;DHT22;5412;59.450;18.124;2023-02-18T01:22:24;5.00;99.90
10722;DHT22;5412;59.450;18.124;2023-02-18T01:24:50;4.90;99.90
10722;DHT22;5412;59.450;18.124;2023-02-18T01:27:16;4.90;99.90
10722;DHT22;5412;59.450;18.124;2023-02-18T01:29:41;4.80;99.90
10722;DHT22;5412;59.450;18.124;2023-02-18T01:32:07;4.70;99.90
10722;DHT22;5412;59.450;18.124;2023-02-18T01:34:33;4.60;99.90
10722;DHT22;5412;59.450;18.124;2023-02-18T01:36:59;4.60;99.90
10722;DHT22;5412;59.450;18.124;2023-02-18T01:39:25;4.40;99.90
10722;DHT22;5412;59.450;18.124;2023-02-18T01:41:51;4.40;99.90
10722;DHT22;5412;59.450;18.124;2023-02-18T01:44:19;4.50;99.90
10722;DHT22;5412;59.450;18.124;2023-02-18T01:46:45;4.30;99.90
10722;DHT22;5412;59.450;18.124;2023-02-18T01:49:17;4.10;99.90
10722;DHT22;5412;59.450;18.124;2023-02-18T01:51:49;4.20;99.90
10722;DHT22;5412;59.450;18.124;2023-02-18T01:54:24;4.10;99.90
10722;DHT22;5412;59.450;18.124;2023-02-18T01:57:13;4.00;99.90
10722;DHT22;5412;59.450;18.124;2023-02-18T01:59:49;3.90;99.90
10722;DHT22;5412;59.450;18.124;2023-02-18T02:02:21;3.90;99.90
10722;DHT22;5412;59.450;18.124;2023-02-18T02:04:49;3.80;99.90
10722;DHT22;5412;59.450;18.124;2023-02-18T02:07:17;3.70;99.90
10722;DHT22;5412;59.450;18.124;2023-02-18T02:09:43;3.80;99.90
10722;DHT22;5412;59.450;18.124;2023-02-18T02:39:16;3.20;99.90
10722;DHT22;5412;59.450;18.124;2023-02-18T02:47:25;3.20;99.90
10722;DHT22;5412;59.450;18.124;2023-02-18T02:50:27;3.20;99.90
10722;DHT22;5412;59.450;18.124;2023-02-18T02:53:00;3.10;99.90
10722;DHT22;5412;59.450;18.124;2023-02-18T02:55:26;3.00;99.90
10722;DHT22;5412;59.450;18.124;2023-02-18T02:57:54;3.00;99.90
10722;DHT22;5412;59.450;18.124;2023-02-18T03:00:54;2.90;99.90
10722;DHT22;5412;59.450;18.124;2023-02-18T03:06:33;2.90;99.90
10722;DHT22;5412;59.450;18.124;2023-02-18T03:12:16;2.90;99.90
10722;DHT22;5412;59.450;18.124;2023-02-18T03:15:04;2.80;99.90
10722;DHT22;5412;59.450;18.124;2023-02-18T03:17:45;2.70;99.90
10722;DHT22;5412;59.450;18.124;2023-02-18T03:20:30;2.80;99.90
10722;DHT22;5412;59.450;18.124;2023-02-18T03:23:02;2.80;99.90
10722;DHT22;5412;59.450;18.124;2023-02-18T03:25:31;2.90;99.90
10722;DHT22;5412;59.450;18.124;2023-02-18T03:28:06;2.90;99.90
10722;DHT22;5412;59.450;18.124;2023-02-18T03:30:47;2.90;99.90
10722;DHT22;5412;59.450;18.124;2023-02-18T03:33:19;2.90;99.90
10722;DHT22;5412;59.450;18.124;2023-02-18T03:35:49;2.90;99.90
10722;DHT22;5412;59.450;18.124;2023-02-18T03:38:23;2.80;99.90
10722;DHT22;5412;59.450;18.124;2023-02-18T03:40:50;2.70;99.90
10722;DHT22;5412;59.450;18.124;2023-02-18T03:43:16;2.80;99.90
10722;DHT22;5412;59.450;18.124;2023-02-18T03:45:42;2.70;99.90
10722;DHT22;5412;59.450;18.124;2023-02-18T03:48:08;2.80;99.90
10722;DHT22;5412;59.450;18.124;2023-02-18T03:50:34;2.70;99.90
10722;DHT22;5412;59.450;18.124;2023-02-18T03:53:00;2.70;99.90
10722;DHT22;5412;59.450;18.124;2023-02-18T03:55:25;2.70;99.90
10722;DHT22;5412;59.450;18.124;2023-02-18T03:57:51;2.70;99.90
10722;DHT22;5412;59.450;18.124;2023-02-18T04:00:17;2.60;99.90
10722;DHT22;5412;59.450;18.124;2023-02-18T04:02:43;2.60;99.90
10722;DHT22;5412;59.450;18.124;2023-02-18T04:05:09;2.50;99.90
10722;DHT22;5412;59.450;18.124;2023-02-18T04:07:35;2.50;99.90
10722;DHT22;5412;59.450;18.124;2023-02-18T04:10:01;2.50;99.90
10722;DHT22;5412;59.450;18.124;2023-02-18T04:12:27;2.50;99.90
10722;DHT22;5412;59.450;18.124;2023-02-18T04:14:52;2.50;99.90
10722;DHT22;5412;59.450;18.124;2023-02-18T04:17:19;2.50;99.90
10722;DHT22;5412;59.450;18.124;2023-02-18T04:19:45;2.50;99.90
10722;DHT22;5412;59.450;18.124;2023-02-18T04:22:10;2.40;99.90
10722;DHT22;5412;59.450;18.124;2023-02-18T04:24:36;2.50;99.90
10722;DHT22;5412;59.450;18.124;2023-02-18T04:27:02;2.50;99.90
10722;DHT22;5412;59.450;18.124;2023-02-18T04:29:28;2.50;99.90
10722;DHT22;5412;59.450;18.124;2023-02-18T04:31:53;2.50;99.90
10722;DHT22;5412;59.450;18.124;2023-02-18T04:34:19;2.40;99.90
10722;DHT22;5412;59.450;18.124;2023-02-18T04:36:45;2.50;99.90
10722;DHT22;5412;59.450;18.124;2023-02-18T04:39:11;2.50;99.90
10722;DHT22;5412;59.450;18.124;2023-02-18T04:41:37;2.50;99.90
10722;DHT22;5412;59.450;18.124;2023-02-18T04:44:03;2.40;99.90
10722;DHT22;5412;59.450;18.124;2023-02-18T04:46:28;2.40;99.90
10722;DHT22;5412;59.450;18.124;2023-02-18T04:48:54;2.50;99.90
10722;DHT22;5412;59.450;18.124;2023-02-18T04:51:20;2.50;99.90
10722;DHT22;5412;59.450;18.124;2023-02-18T04:53:46;2.50;99.90
10722;DHT22;5412;59.450;18.124;2023-02-18T04:56:12;2.50;99.90
10722;DHT22;5412;59.450;18.124;2023-02-18T04:58:37;2.50;99.90
10722;DHT22;5412;59.450;18.124;2023-02-18T05:01:03;2.50;99.90
10722;DHT22;5412;59.450;18.124;2023-02-18T05:03:30;2.40;99.90
10722;DHT22;5412;59.450;18.124;2023-02-18T05:05:56;2.50;99.90
10722;DHT22;5412;59.450;18.124;2023-02-18T05:08:22;2.50;99.90
10722;DHT22;5412;59.450;18.124;2023-02-18T05:10:48;2.50;99.90
10722;DHT22;5412;59.450;18.124;2023-02-18T05:13:14;2.50;99.90
10722;DHT22;5412;59.450;18.124;2023-02-18T05:15:40;2.50;99.90
10722;DHT22;5412;59.450;18.124;2023-02-18T05:18:06;2.50;99.90
10722;DHT22;5412;59.450;18.124;2023-02-18T05:20:32;2.50;99.90
10722;DHT22;5412;59.450;18.124;2023-02-18T05:22:58;2.50;99.90
10722;DHT22;5412;59.450;18.124;2023-02-18T05:25:24;2.50;99.90
10722;DHT22;5412;59.450;18.124;2023-02-18T05:27:50;2.50;99.90
10722;DHT22;5412;59.450;18.124;2023-02-18T05:30:16;2.50;99.90
10722;DHT22;5412;59.450;18.124;2023-02-18T05:32:42;2.40;99.90
10722;DHT22;5412;59.450;18.124;2023-02-18T05:35:08;2.50;99.90
10722;DHT22;5412;59.450;18.124;2023-02-18T05:37:34;2.50;99.90
10722;DHT22;5412;59.450;18.124;2023-02-18T05:39:59;2.50;99.90
10722;DHT22;5412;59.450;18.124;2023-02-18T05:42:25;2.50;99.90
10722;DHT22;5412;59.450;18.124;2023-02-18T05:44:51;2.50;99.90
10722;DHT22;5412;59.450;18.124;2023-02-18T05:47:18;2.40;99.90
10722;DHT22;5412;59.450;18.124;2023-02-18T05:49:45;2.40;99.90
10722;DHT22;5412;59.450;18.124;2023-02-18T05:52:11;2.50;99.90
10722;DHT22;5412;59.450;18.124;2023-02-18T05:54:37;2.40;99.90
10722;DHT22;5412;59.450;18.124;2023-02-18T05:57:04;2.50;99.90
10722;DHT22;5412;59.450;18.124;2023-02-18T05:59:30;2.40;99.90
10722;DHT22;5412;59.450;18.124;2023-02-18T06:01:56;2.50;99.90
10722;DHT22;5412;59.450;18.124;2023-02-18T06:04:22;2.50;99.90
10722;DHT22;5412;59.450;18.124;2023-02-18T06:06:48;2.60;99.90
10722;DHT22;5412;59.450;18.124;2023-02-18T06:09:14;2.50;99.90
10722;DHT22;5412;59.450;18.124;2023-02-18T06:11:39;2.50;99.90
10722;DHT22;5412;59.450;18.124;2023-02-18T06:14:05;2.50;99.90
10722;DHT22;5412;59.450;18.124;2023-02-18T06:16:31;2.40;99.90
10722;DHT22;5412;59.450;18.124;2023-02-18T06:18:57;2.40;99.90
10722;DHT22;5412;59.450;18.124;2023-02-18T06:21:23;2.40;99.90
10722;DHT22;5412;59.450;18.124;2023-02-18T06:23:49;2.50;99.90
10722;DHT22;5412;59.450;18.124;2023-02-18T06:26:14;2.50;99.90
10722;DHT22;5412;59.450;18.124;2023-02-18T06:28:40;2.40;99.90
10722;DHT22;5412;59.450;18.124;2023-02-18T06:31:06;2.30;99.90
10722;DHT22;5412;59.450;18.124;2023-02-18T06:33:32;2.40;99.90
10722;DHT22;5412;59.450;18.124;2023-02-18T06:36:03;2.40;99.90
10722;DHT22;5412;59.450;18.124;2023-02-18T06:38:36;2.30;99.90
10722;DHT22;5412;59.450;18.124;2023-02-18T06:41:02;2.30;99.90
10722;DHT22;5412;59.450;18.124;2023-02-18T06:43:28;2.30;99.90
10722;DHT22;5412;59.450;18.124;2023-02-18T06:45:54;2.30;99.90
10722;DHT22;5412;59.450;18.124;2023-02-18T06:48:20;2.40;99.90
10722;DHT22;5412;59.450;18.124;2023-02-18T06:50:47;2.40;99.90
10722;DHT22;5412;59.450;18.124;2023-02-18T06:53:13;2.40;99.90
10722;DHT22;5412;59.450;18.124;2023-02-18T06:55:41;2.50;99.90
10722;DHT22;5412;59.450;18.124;2023-02-18T06:58:08;2.40;99.90
10722;DHT22;5412;59.450;18.124;2023-02-18T07:00:33;2.50;99.90
10722;DHT22;5412;59.450;18.124;2023-02-18T07:03:00;2.50;99.90
10722;DHT22;5412;59.450;18.124;2023-02-18T07:05:26;2.60;99.90
10722;DHT22;5412;59.450;18.124;2023-02-18T07:07:52;2.50;99.90
10722;DHT22;5412;59.450;18.124;2023-02-18T07:10:18;2.60;99.90
10722;DHT22;5412;59.450;18.124;2023-02-18T07:12:44;2.60;99.90
10722;DHT22;5412;59.450;18.124;2023-02-18T07:15:10;2.60;99.90
10722;DHT22;5412;59.450;18.124;2023-02-18T07:17:36;2.60;99.90
10722;DHT22;5412;59.450;18.124;2023-02-18T07:20:02;2.60;99.90
10722;DHT22;5412;59.450;18.124;2023-02-18T07:22:29;2.60;99.90
10722;DHT22;5412;59.450;18.124;2023-02-18T07:24:54;2.60;99.90
10722;DHT22;5412;59.450;18.124;2023-02-18T07:27:21;2.70;99.90
10722;DHT22;5412;59.450;18.124;2023-02-18T07:29:47;2.70;99.90
10722;DHT22;5412;59.450;18.124;2023-02-18T07:32:15;2.70;99.90
10722;DHT22;5412;59.450;18.124;2023-02-18T07:34:41;2.80;99.90
10722;DHT22;5412;59.450;18.124;2023-02-18T07:37:07;2.70;99.90
10722;DHT22;5412;59.450;18.124;2023-02-18T07:39:43;2.80;99.90
10722;DHT22;5412;59.450;18.124;2023-02-18T07:42:11;2.70;99.90
10722;DHT22;5412;59.450;18.124;2023-02-18T07:44:38;2.60;99.90
10722;DHT22;5412;59.450;18.124;2023-02-18T07:47:05;2.70;99.90
10722;DHT22;5412;59.450;18.124;2023-02-18T07:49:32;2.70;99.90
10722;DHT22;5412;59.450;18.124;2023-02-18T07:51:58;2.80;99.90
10722;DHT22;5412;59.450;18.124;2023-02-18T07:54:24;2.70;99.90
10722;DHT22;5412;59.450;18.124;2023-02-18T07:56:50;2.80;99.90
10722;DHT22;5412;59.450;18.124;2023-02-18T07:59:16;2.80;99.90
10722;DHT22;5412;59.450;18.124;2023-02-18T08:01:41;2.80;99.90
10722;DHT22;5412;59.450;18.124;2023-02-18T08:04:07;2.90;99.90
10722;DHT22;5412;59.450;18.124;2023-02-18T08:06:36;2.80;99.90
10722;DHT22;5412;59.450;18.124;2023-02-18T08:09:03;2.80;99.90
10722;DHT22;5412;59.450;18.124;2023-02-18T08:11:29;2.70;99.90
10722;DHT22;5412;59.450;18.124;2023-02-18T08:13:55;2.80;99.90
10722;DHT22;5412;59.450;18.124;2023-02-18T08:16:21;2.80;99.90
10722;DHT22;5412;59.450;18.124;2023-02-18T08:18:48;2.80;99.90
10722;DHT22;5412;59.450;18.124;2023-02-18T08:21:16;2.80;99.90
10722;DHT22;5412;59.450;18.124;2023-02-18T08:23:42;2.90;99.90
10722;DHT22;5412;59.450;18.124;2023-02-18T08:26:08;2.90;99.90
10722;DHT22;5412;59.450;18.124;2023-02-18T08:28:34;3.00;99.90
10722;DHT22;5412;59.450;18.124;2023-02-18T08:30:59;3.00;99.90
10722;DHT22;5412;59.450;18.124;2023-02-18T08:33:25;3.00;99.90
10722;DHT22;5412;59.450;18.124;2023-02-18T08:35:52;2.80;99.90
10722;DHT22;5412;59.450;18.124;2023-02-18T08:38:19;2.90;99.90
10722;DHT22;5412;59.450;18.124;2023-02-18T08:40:45;2.90;99.90
10722;DHT22;5412;59.450;18.124;2023-02-18T08:43:12;3.00;99.90
10722;DHT22;5412;59.450;18.124;2023-02-18T08:45:38;2.90;99.90
10722;DHT22;5412;59.450;18.124;2023-02-18T08:48:05;2.90;99.90
10722;DHT22;5412;59.450;18.124;2023-02-18T08:50:32;2.90;99.90
10722;DHT22;5412;59.450;18.124;2023-02-18T08:52:58;2.90;99.90
10722;DHT22;5412;59.450;18.124;2023-02-18T08:55:32;3.00;99.90
10722;DHT22;5412;59.450;18.124;2023-02-18T08:57:59;3.00;99.90
10722;DHT22;5412;59.450;18.124;2023-02-18T09:00:25;3.00;99.90
10722;DHT22;5412;59.450;18.124;2023-02-18T09:02:51;3.00;99.90
10722;DHT22;5412;59.450;18.124;2023-02-18T09:05:16;3.00;99.90
10722;DHT22;5412;59.450;18.124;2023-02-18T09:07:42;3.00;99.90
10722;DHT22;5412;59.450;18.124;2023-02-18T09:10:09;3.00;99.90
10722;DHT22;5412;59.450;18.124;2023-02-18T09:12:35;2.90;99.90
10722;DHT22;5412;59.450;18.124;2023-02-18T09:15:01;2.90;99.90
10722;DHT22;5412;59.450;18.124;2023-02-18T09:17:27;3.00;99.90
10722;DHT22;5412;59.450;18.124;2023-02-18T09:19:53;3.10;99.90
10722;DHT22;5412;59.450;18.124;2023-02-18T09:22:19;3.10;99.90
10722;DHT22;5412;59.450;18.124;2023-02-18T09:24:45;3.10;99.90
10722;DHT22;5412;59.450;18.124;2023-02-18T09:27:11;3.20;99.90
10722;DHT22;5412;59.450;18.124;2023-02-18T09:29:39;3.30;99.90
10722;DHT22;5412;59.450;18.124;2023-02-18T09:32:06;3.30;99.90
10722;DHT22;5412;59.450;18.124;2023-02-18T09:34:32;3.20;99.90
10722;DHT22;5412;59.450;18.124;2023-02-18T09:36:58;3.30;99.90
10722;DHT22;5412;59.450;18.124;2023-02-18T09:39:24;3.20;99.90
10722;DHT22;5412;59.450;18.124;2023-02-18T09:42:06;3.30;99.90
10722;DHT22;5412;59.450;18.124;2023-02-18T09:44:41;3.20;99.90
10722;DHT22;5412;59.450;18.124;2023-02-18T09:47:18;3.30;99.90
10722;DHT22;5412;59.450;18.124;2023-02-18T09:49:50;3.30;99.90
10722;DHT22;5412;59.450;18.124;2023-02-18T09:52:20;3.40;99.90
10722;DHT22;5412;59.450;18.124;2023-02-18T09:54:50;3.50;99.90
10722;DHT22;5412;59.450;18.124;2023-02-18T09:57:29;3.40;99.90
10722;DHT22;5412;59.450;18.124;2023-02-18T10:00:06;3.50;99.90
10722;DHT22;5412;59.450;18.124;2023-02-18T10:02:36;3.40;99.90
10722;DHT22;5412;59.450;18.124;2023-02-18T10:05:03;3.50;99.90
10722;DHT22;5412;59.450;18.124;2023-02-18T10:07:31;3.60;99.90
10722;DHT22;5412;59.450;18.124;2023-02-18T10:10:02;3.60;99.90
10722;DHT22;5412;59.450;18.124;2023-02-18T10:12:29;3.70;99.90
10722;DHT22;5412;59.450;18.124;2023-02-18T10:14:59;3.70;99.90
10722;DHT22;5412;59.450;18.124;2023-02-18T10:17:29;3.70;99.90
10722;DHT22;5412;59.450;18.124;2023-02-18T10:19:56;3.60;99.90
10722;DHT22;5412;59.450;18.124;2023-02-18T10:22:24;3.60;99.90
10722;DHT22;5412;59.450;18.124;2023-02-18T10:24:57;3.50;99.90
10722;DHT22;5412;59.450;18.124;2023-02-18T10:27:26;3.60;99.90
10722;DHT22;5412;59.450;18.124;2023-02-18T10:29:53;3.50;99.90
10722;DHT22;5412;59.450;18.124;2023-02-18T10:32:26;3.60;99.90
10722;DHT22;5412;59.450;18.124;2023-02-18T10:34:57;3.70;99.90
10722;DHT22;5412;59.450;18.124;2023-02-18T10:40:48;3.90;99.90
10722;DHT22;5412;59.450;18.124;2023-02-18T10:46:20;4.00;99.90
10722;DHT22;5412;59.450;18.124;2023-02-18T10:51:39;4.10;99.90
10722;DHT22;5412;59.450;18.124;2023-02-18T10:54:13;4.00;99.90
10722;DHT22;5412;59.450;18.124;2023-02-18T10:56:41;4.00;99.90
10722;DHT22;5412;59.450;18.124;2023-02-18T10:59:22;4.00;99.90
10722;DHT22;5412;59.450;18.124;2023-02-18T11:02:14;4.00;99.90
10722;DHT22;5412;59.450;18.124;2023-02-18T11:04:45;4.00;99.90
10722;DHT22;5412;59.450;18.124;2023-02-18T11:07:20;4.00;99.90
10722;DHT22;5412;59.450;18.124;2023-02-18T11:09:52;4.00;99.90
10722;DHT22;5412;59.450;18.124;2023-02-18T11:12:50;4.00;99.90
10722;DHT22;5412;59.450;18.124;2023-02-18T11:15:21;4.10;99.90
10722;DHT22;5412;59.450;18.124;2023-02-18T11:17:50;4.10;99.90
10722;DHT22;5412;59.450;18.124;2023-02-18T11:20:33;4.20;99.90
10722;DHT22;5412;59.450;18.124;2023-02-18T11:25:33;4.30;99.90
10722;DHT22;5412;59.450;18.124;2023-02-18T11:28:02;4.30;99.90
10722;DHT22;5412;59.450;18.124;2023-02-18T11:30:40;4.40;99.90
10722;DHT22;5412;59.450;18.124;2023-02-18T11:33:34;4.50;99.90
10722;DHT22;5412;59.450;18.124;2023-02-18T11:36:21;4.60;99.90
10722;DHT22;5412;59.450;18.124;2023-02-18T11:41:40;4.70;99.90
10722;DHT22;5412;59.450;18.124;2023-02-18T11:49:22;4.60;99.90
10722;DHT22;5412;59.450;18.124;2023-02-18T11:51:49;4.80;99.90
10722;DHT22;5412;59.450;18.124;2023-02-18T11:56:56;4.70;99.90
10722;DHT22;5412;59.450;18.124;2023-02-18T11:59:23;4.70;99.90
10722;DHT22;5412;59.450;18.124;2023-02-18T12:02:40;4.80;99.90
10722;DHT22;5412;59.450;18.124;2023-02-18T12:07:58;4.80;99.90
10722;DHT22;5412;59.450;18.124;2023-02-18T12:10:37;4.80;99.90
10722;DHT22;5412;59.450;18.124;2023-02-18T12:30:10;5.00;99.90
10722;DHT22;5412;59.450;18.124;2023-02-18T12:33:01;5.00;99.90
10722;DHT22;5412;59.450;18.124;2023-02-18T12:38:25;5.00;99.90
10722;DHT22;5412;59.450;18.124;2023-02-18T13:08:34;5.10;99.90
10722;DHT22;5412;59.450;18.124;2023-02-18T13:13:59;5.20;99.90
10722;DHT22;5412;59.450;18.124;2023-02-18T13:16:28;5.20;99.90
10722;DHT22;5412;59.450;18.124;2023-02-18T13:19:21;5.30;99.90
10722;DHT22;5412;59.450;18.124;2023-02-18T13:21:50;5.20;99.90
10722;DHT22;5412;59.450;18.124;2023-02-18T13:24:37;5.10;99.90
10722;DHT22;5412;59.450;18.124;2023-02-18T13:27:20;5.30;99.90
10722;DHT22;5412;59.450;18.124;2023-02-18T13:32:59;5.20;99.90
10722;DHT22;5412;59.450;18.124;2023-02-18T13:35:45;5.20;99.90
10722;DHT22;5412;59.450;18.124;2023-02-18T13:41:06;5.20;99.90
10722;DHT22;5412;59.450;18.124;2023-02-18T13:43:34;5.20;99.90
10722;DHT22;5412;59.450;18.124;2023-02-18T13:46:17;5.10;99.90
10722;DHT22;5412;59.450;18.124;2023-02-18T13:51:39;5.20;99.90
10722;DHT22;5412;59.450;18.124;2023-02-18T13:56:50;5.40;99.90
10722;DHT22;5412;59.450;18.124;2023-02-18T13:59:38;5.40;99.90
10722;DHT22;5412;59.450;18.124;2023-02-18T14:18:08;5.30;99.90
10722;DHT22;5412;59.450;18.124;2023-02-18T14:25:50;5.10;99.90
10722;DHT22;5412;59.450;18.124;2023-02-18T14:28:49;5.20;99.90
10722;DHT22;5412;59.450;18.124;2023-02-18T14:31:43;5.10;99.90
10722;DHT22;5412;59.450;18.124;2023-02-18T14:37:51;5.00;99.90
10722;DHT22;5412;59.450;18.124;2023-02-18T14:41:00;5.10;99.90
10722;DHT22;5412;59.450;18.124;2023-02-18T14:46:43;5.00;99.90
10722;DHT22;5412;59.450;18.124;2023-02-18T14:49:47;5.00;99.90
10722;DHT22;5412;59.450;18.124;2023-02-18T14:54:54;5.00;99.90
10722;DHT22;5412;59.450;18.124;2023-02-18T14:57:43;4.90;99.90
10722;DHT22;5412;59.450;18.124;2023-02-18T15:00:19;4.90;99.90
10722;DHT22;5412;59.450;18.124;2023-02-18T15:02:52;4.90;99.90
10722;DHT22;5412;59.450;18.124;2023-02-18T15:05:23;4.90;99.90
10722;DHT22;5412;59.450;18.124;2023-02-18T15:07:57;5.00;99.90
10722;DHT22;5412;59.450;18.124;2023-02-18T15:11:00;4.90;99.90
10722;DHT22;5412;59.450;18.124;2023-02-18T15:13:36;5.00;99.90
10722;DHT22;5412;59.450;18.124;2023-02-18T15:16:07;5.00;99.90
10722;DHT22;5412;59.450;18.124;2023-02-18T15:18:36;5.00;99.90
10722;DHT22;5412;59.450;18.124;2023-02-18T15:21:17;5.00;99.90
10722;DHT22;5412;59.450;18.124;2023-02-18T15:23:45;4.90;99.90
10722;DHT22;5412;59.450;18.124;2023-02-18T15:26:13;4.90;99.90
10722;DHT22;5412;59.450;18.124;2023-02-18T15:28:50;4.80;99.90
10722;DHT22;5412;59.450;18.124;2023-02-18T15:31:23;4.80;99.90
10722;DHT22;5412;59.450;18.124;2023-02-18T15:33:49;4.80;99.90
10722;DHT22;5412;59.450;18.124;2023-02-18T15:36:15;4.80;99.90
10722;DHT22;5412;59.450;18.124;2023-02-18T15:38:40;4.80;99.90
10722;DHT22;5412;59.450;18.124;2023-02-18T15:41:11;4.90;99.90
10722;DHT22;5412;59.450;18.124;2023-02-18T15:43:37;4.90;99.90
10722;DHT22;5412;59.450;18.124;2023-02-18T15:46:11;4.80;99.90
10722;DHT22;5412;59.450;18.124;2023-02-18T15:48:44;4.80;99.90
10722;DHT22;5412;59.450;18.124;2023-02-18T15:51:13;4.80;99.90
10722;DHT22;5412;59.450;18.124;2023-02-18T15:53:44;4.70;99.90
10722;DHT22;5412;59.450;18.124;2023-02-18T15:56:19;4.70;99.90
10722;DHT22;5412;59.450;18.124;2023-02-18T15:58:46;4.70;99.90
10722;DHT22;5412;59.450;18.124;2023-02-18T16:01:28;4.60;99.90
10722;DHT22;5412;59.450;18.124;2023-02-18T16:03:55;4.70;99.90
10722;DHT22;5412;59.450;18.124;2023-02-18T16:06:29;4.60;99.90
10722;DHT22;5412;59.450;18.124;2023-02-18T16:11:38;4.60;99.90
10722;DHT22;5412;59.450;18.124;2023-02-18T16:14:05;4.60;99.90
10722;DHT22;5412;59.450;18.124;2023-02-18T16:16:33;4.50;99.90
10722;DHT22;5412;59.450;18.124;2023-02-18T16:19:00;5.10;99.90
10722;DHT22;5412;59.450;18.124;2023-02-18T16:21:31;4.50;99.90
10722;DHT22;5412;59.450;18.124;2023-02-18T16:24:02;4.50;99.90
10722;DHT22;5412;59.450;18.124;2023-02-18T16:26:40;4.40;99.90
10722;DHT22;5412;59.450;18.124;2023-02-18T16:29:14;4.40;99.90
10722;DHT22;5412;59.450;18.124;2023-02-18T16:31:41;4.40;99.90
10722;DHT22;5412;59.450;18.124;2023-02-18T16:34:07;4.60;99.90
10722;DHT22;5412;59.450;18.124;2023-02-18T16:36:33;4.50;99.90
10722;DHT22;5412;59.450;18.124;2023-02-18T16:38:59;4.50;99.90
10722;DHT22;5412;59.450;18.124;2023-02-18T16:41:27;4.50;99.90
10722;DHT22;5412;59.450;18.124;2023-02-18T16:43:53;4.40;99.90
10722;DHT22;5412;59.450;18.124;2023-02-18T16:46:21;4.30;99.90
10722;DHT22;5412;59.450;18.124;2023-02-18T16:48:54;4.30;99.90
10722;DHT22;5412;59.450;18.124;2023-02-18T16:51:32;4.30;99.90
10722;DHT22;5412;59.450;18.124;2023-02-18T16:53:59;4.30;99.90
10722;DHT22;5412;59.450;18.124;2023-02-18T16:56:29;4.30;99.90
10722;DHT22;5412;59.450;18.124;2023-02-18T16:58:57;4.20;99.90
10722;DHT22;5412;59.450;18.124;2023-02-18T17:04:03;4.10;99.90
10722;DHT22;5412;59.450;18.124;2023-02-18T17:06:31;4.10;99.90
10722;DHT22;5412;59.450;18.124;2023-02-18T17:08:57;4.10;99.90
10722;DHT22;5412;59.450;18.124;2023-02-18T17:11:32;4.00;99.90
10722;DHT22;5412;59.450;18.124;2023-02-18T17:13:58;4.00;99.90
10722;DHT22;5412;59.450;18.124;2023-02-18T17:16:25;4.00;99.90
10722;DHT22;5412;59.450;18.124;2023-02-18T17:18:51;4.00;99.90
10722;DHT22;5412;59.450;18.124;2023-02-18T17:21:20;3.90;99.90
10722;DHT22;5412;59.450;18.124;2023-02-18T17:23:47;3.90;99.90
10722;DHT22;5412;59.450;18.124;2023-02-18T17:26:21;3.90;99.90
10722;DHT22;5412;59.450;18.124;2023-02-18T17:28:49;3.90;99.90
10722;DHT22;5412;59.450;18.124;2023-02-18T17:31:27;3.90;99.90
10722;DHT22;5412;59.450;18.124;2023-02-18T17:33:55;3.90;99.90
10722;DHT22;5412;59.450;18.124;2023-02-18T17:36:21;3.90;99.90
10722;DHT22;5412;59.450;18.124;2023-02-18T17:38:47;3.90;99.90
10722;DHT22;5412;59.450;18.124;2023-02-18T17:41:14;3.80;99.90
10722;DHT22;5412;59.450;18.124;2023-02-18T17:43:40;3.80;99.90
10722;DHT22;5412;59.450;18.124;2023-02-18T17:46:11;3.80;99.90
10722;DHT22;5412;59.450;18.124;2023-02-18T17:48:38;3.90;99.90
10722;DHT22;5412;59.450;18.124;2023-02-18T17:51:05;3.90;99.90
10722;DHT22;5412;59.450;18.124;2023-02-18T17:53:32;3.80;99.90
10722;DHT22;5412;59.450;18.124;2023-02-18T17:55:58;3.90;99.90
10722;DHT22;5412;59.450;18.124;2023-02-18T17:58:24;3.90;99.90
10722;DHT22;5412;59.450;18.124;2023-02-18T18:00:53;3.90;99.90
10722;DHT22;5412;59.450;18.124;2023-02-18T18:03:19;3.80;99.90
10722;DHT22;5412;59.450;18.124;2023-02-18T18:05:48;3.80;99.90
10722;DHT22;5412;59.450;18.124;2023-02-18T18:08:15;3.80;99.90
10722;DHT22;5412;59.450;18.124;2023-02-18T18:10:48;3.70;99.90
10722;DHT22;5412;59.450;18.124;2023-02-18T18:13:21;3.70;99.90
10722;DHT22;5412;59.450;18.124;2023-02-18T18:15:48;3.60;99.90
10722;DHT22;5412;59.450;18.124;2023-02-18T18:18:14;3.60;99.90
10722;DHT22;5412;59.450;18.124;2023-02-18T18:20:42;3.60;99.90
10722;DHT22;5412;59.450;18.124;2023-02-18T18:23:16;3.50;99.90
10722;DHT22;5412;59.450;18.124;2023-02-18T18:25:45;3.40;99.90
10722;DHT22;5412;59.450;18.124;2023-02-18T18:28:11;3.40;99.90
10722;DHT22;5412;59.450;18.124;2023-02-18T18:30:40;3.50;99.90
10722;DHT22;5412;59.450;18.124;2023-02-18T18:35:47;3.40;99.90
10722;DHT22;5412;59.450;18.124;2023-02-18T18:38:14;3.40;99.90
10722;DHT22;5412;59.450;18.124;2023-02-18T18:40:41;3.40;99.90
10722;DHT22;5412;59.450;18.124;2023-02-18T18:43:07;3.40;99.90
10722;DHT22;5412;59.450;18.124;2023-02-18T18:45:34;3.40;99.90